»·PEaware :: N122SQ KAPA-KTOR

N122SQ :: KAPA-KTOR

FLIGHT INFORMATION

Flight Status: Arrived
Operator: Privately registered:
United States
More flights under this callsign
Pilot: Gabor H. (24209)
Aircraft: CIRRUS SR-22 TURBO
(S22T)
More flights by this aircraft type
Origin: KAPA Centennial
United States
Destination: KTOR Torrington Mun
United States
More flights between these airports :: More routes between these airports
Route: DEN2 GLL V611 CYS V547 HOCXU
File this flight plan on PilotEdge
Remarks:
Altitude:
(Current/Filed)
17,000ft
Speed:
(Current/Filed)
160kts
Departed: 28-Oct-23 07:17 AM
Arrived: 28-Oct-23 08:13 AM
Distance/Time
Traveled:
153nm/0:56
Distance/Time
To Go:
Arrived

Flight Plot

Page will automatically refresh every two minutes.

Flight plan parsing failed; only flown route is shown


Map Options




Map Legend


Flown Route
Filed Route
Departure Airport
Arrival Airport
Navaid (VOR, NDB)
Fix

Horizontal Profiles

Position Reports

Time Latitude Longitude Heading Altitude Ground
Speed
28-Oct-23 07:03 39.573450 -104.843048 89 5887ft 0kts
28-Oct-23 07:04 39.573450 -104.843048 89 5887ft 0kts
28-Oct-23 07:05 39.573450 -104.843048 89 5887ft 0kts
28-Oct-23 07:06 39.573450 -104.843048 89 5887ft 0kts
28-Oct-23 07:07 39.573450 -104.843048 89 5887ft 0kts
28-Oct-23 07:08 39.573450 -104.843048 89 5887ft 0kts
28-Oct-23 07:09 39.573773 -104.842864 354 5887ft 7kts
28-Oct-23 07:10 39.573900 -104.848603 280 5887ft 17kts
28-Oct-23 07:11 39.569183 -104.849376 178 5887ft 32kts
28-Oct-23 07:12 39.560334 -104.848991 179 5887ft 22kts
28-Oct-23 07:13 39.556874 -104.848473 234 5887ft 3kts
28-Oct-23 07:14 39.556872 -104.848501 286 5887ft 0kts
28-Oct-23 07:15 39.556838 -104.849079 263 5887ft 4kts
28-Oct-23 07:16 39.569130 -104.850135 357 6057ft 103kts
28-Oct-23 07:17 39.603885 -104.850259 358 6773ft 135kts
28-Oct-23 07:18 39.642760 -104.849906 358 7678ft 140kts
28-Oct-23 07:19 39.682800 -104.846679 14 8772ft 145kts
28-Oct-23 07:20 39.722515 -104.832793 17 10008ft 147kts
28-Oct-23 07:21 39.764496 -104.817674 13 11005ft 165kts
28-Oct-23 07:22 39.809459 -104.801721 7 12112ft 166kts
28-Oct-23 07:23 39.856428 -104.785230 8 13150ft 172kts
28-Oct-23 07:24 39.905057 -104.767925 6 14231ft 176kts
28-Oct-23 07:25 39.956245 -104.749692 6 15281ft 181kts
28-Oct-23 07:26 40.008991 -104.730898 6 16345ft 184kts
28-Oct-23 07:27 40.059654 -104.712824 6 17048ft 200kts
28-Oct-23 07:28 40.116011 -104.692579 7 17071ft 214kts
28-Oct-23 07:29 40.172385 -104.672357 8 17096ft 208kts
28-Oct-23 07:30 40.228234 -104.652328 7 17104ft 208kts
28-Oct-23 07:31 40.284014 -104.632268 7 17097ft 208kts
28-Oct-23 07:32 40.339696 -104.612228 7 17100ft 208kts
28-Oct-23 07:33 40.395656 -104.592019 7 17078ft 210kts
28-Oct-23 07:34 40.451532 -104.571796 7 17065ft 207kts
28-Oct-23 07:35 40.507188 -104.553918 340 17049ft 194kts
28-Oct-23 07:36 40.558489 -104.569624 335 17066ft 189kts
28-Oct-23 07:37 40.609623 -104.585428 335 17067ft 189kts
28-Oct-23 07:38 40.660888 -104.601266 335 17067ft 189kts
28-Oct-23 07:39 40.711811 -104.617025 335 17067ft 189kts
28-Oct-23 07:40 40.762986 -104.632873 335 17067ft 188kts
28-Oct-23 07:41 40.813826 -104.648651 335 17063ft 188kts
28-Oct-23 07:42 40.864929 -104.664535 335 17041ft 189kts
28-Oct-23 07:43 40.920266 -104.681756 335 17020ft 189kts
28-Oct-23 07:44 40.975602 -104.699007 335 17005ft 188kts
28-Oct-23 07:45 41.029703 -104.715912 335 17040ft 187kts
28-Oct-23 07:46 41.080748 -104.731885 335 17040ft 188kts
28-Oct-23 07:47 41.131560 -104.747807 335 17036ft 187kts
28-Oct-23 07:48 41.185119 -104.764622 335 17036ft 187kts
28-Oct-23 07:49 41.242694 -104.771337 351 17037ft 197kts
28-Oct-23 07:50 41.301719 -104.768561 351 17000ft 198kts
28-Oct-23 07:51 41.358892 -104.765904 351 17000ft 199kts
28-Oct-23 07:52 41.419056 -104.763105 351 17010ft 200kts
28-Oct-23 07:53 41.479290 -104.760288 352 17003ft 203kts
28-Oct-23 07:54 41.538349 -104.757520 351 17005ft 201kts
28-Oct-23 07:55 41.596698 -104.754806 351 17111ft 197kts
28-Oct-23 07:56 41.654181 -104.752124 351 17112ft 199kts
28-Oct-23 07:57 41.714018 -104.749315 351 17111ft 199kts
28-Oct-23 07:58 41.772816 -104.746618 353 16763ft 214kts
28-Oct-23 07:59 41.836308 -104.743563 355 15564ft 224kts
28-Oct-23 08:00 41.900656 -104.740491 356 14096ft 224kts
28-Oct-23 08:01 41.961185 -104.737678 358 12732ft 202kts
28-Oct-23 08:02 42.004131 -104.696848 60 11576ft 201kts
28-Oct-23 08:03 42.032387 -104.627617 61 10427ft 194kts
28-Oct-23 08:04 42.058453 -104.563604 61 9380ft 189kts
28-Oct-23 08:05 42.083669 -104.501563 62 8454ft 185kts
28-Oct-23 08:06 42.108537 -104.440167 62 7386ft 182kts
28-Oct-23 08:07 42.132585 -104.380795 63 6368ft 177kts
28-Oct-23 08:08 42.123928 -104.324927 114 6296ft 152kts
28-Oct-23 08:09 42.105603 -104.272833 114 5964ft 162kts
28-Oct-23 08:10 42.085845 -104.216861 112 5071ft 162kts
28-Oct-23 08:11 42.071174 -104.175536 111 4441ft 104kts
28-Oct-23 08:12 42.063574 -104.153927 150 4199ft 8kts
28-Oct-23 08:13 42.062503 -104.156833 295 4197ft 13kts
28-Oct-23 08:14 42.063358 -104.159491 28 4194ft 2kts
28-Oct-23 08:15 42.063366 -104.159485 28 4194ft 0kts
28-Oct-23 08:16 42.063366 -104.159485 28 4194ft 0kts
28-Oct-23 08:17 42.063366 -104.159485 28 4194ft 0kts
28-Oct-23 08:18 42.063366 -104.159485 28 4194ft 0kts
28-Oct-23 08:19 42.063366 -104.159485 28 4194ft 0kts
28-Oct-23 08:20 42.063366 -104.159485 28 4194ft 0kts
28-Oct-23 08:21 42.063366 -104.159485 28 4194ft 0kts
28-Oct-23 08:22 42.063366 -104.159485 28 4194ft 0kts
28-Oct-23 08:23 42.063366 -104.159485 28 4194ft 0kts
28-Oct-23 08:24 42.063366 -104.159485 28 4194ft 0kts
28-Oct-23 08:25 42.063366 -104.159485 28 4194ft 0kts
28-Oct-23 08:26 42.063366 -104.159485 28 4194ft 0kts

Navigation Log

Ident Type
Flight plan parsing failed, navigation log unavailable